createdAt,value
2018-06-22T00:02:20.422Z,45.40
2018-06-22T00:04:47.675Z,45.40
2018-06-22T00:07:14.935Z,45.00
2018-06-22T00:09:42.267Z,45.50
2018-06-22T00:12:09.572Z,45.30
2018-06-22T00:14:36.839Z,45.40
2018-06-22T00:17:04.193Z,45.50
2018-06-22T00:19:31.462Z,45.40
2018-06-22T00:21:58.730Z,45.80
2018-06-22T00:24:25.949Z,45.70
2018-06-22T00:26:53.236Z,46.00
2018-06-22T00:29:20.446Z,45.80
2018-06-22T00:31:47.734Z,45.70
2018-06-22T00:34:15.027Z,46.60
2018-06-22T00:36:42.314Z,45.70
2018-06-22T00:39:10.363Z,46.00
2018-06-22T00:41:37.802Z,45.90
2018-06-22T00:44:05.092Z,46.30
2018-06-22T00:46:32.326Z,45.90
2018-06-22T00:48:59.592Z,46.10
2018-06-22T00:51:26.875Z,46.10
2018-06-22T00:54:05.658Z,46.20
2018-06-22T00:56:32.860Z,46.20
2018-06-22T00:59:00.199Z,46.60
2018-06-22T01:01:27.417Z,46.40
2018-06-22T01:03:54.596Z,46.20
2018-06-22T01:06:21.901Z,46.50
2018-06-22T01:08:49.215Z,46.50
2018-06-22T01:11:16.592Z,47.00
2018-06-22T01:13:43.884Z,46.30
2018-06-22T01:16:11.179Z,46.70
2018-06-22T01:18:38.774Z,47.10
2018-06-22T01:21:06.085Z,46.90
2018-06-22T01:23:33.368Z,46.80
2018-06-22T01:26:00.618Z,46.80
2018-06-22T01:28:27.938Z,46.80
2018-06-22T01:30:55.240Z,47.00
2018-06-22T01:33:22.538Z,47.30
2018-06-22T01:35:49.853Z,47.80
2018-06-22T01:38:17.670Z,47.00
2018-06-22T01:40:44.966Z,47.40
2018-06-22T01:43:12.257Z,46.60
2018-06-22T01:45:39.658Z,47.10
2018-06-22T01:48:06.930Z,46.90
2018-06-22T01:50:34.298Z,47.30
2018-06-22T01:53:01.582Z,46.40
2018-06-22T01:55:28.874Z,46.80
2018-06-22T01:57:56.101Z,46.50
2018-06-22T02:00:23.442Z,47.10
2018-06-22T02:02:50.958Z,46.20
2018-06-22T02:05:18.165Z,46.80
2018-06-22T02:07:45.489Z,46.80
2018-06-22T02:10:12.841Z,47.10
2018-06-22T02:12:40.361Z,46.60
2018-06-22T02:15:07.618Z,46.50
2018-06-22T02:17:34.884Z,47.30
2018-06-22T02:20:02.194Z,46.90
2018-06-22T02:22:29.502Z,47.00
2018-06-22T02:24:56.786Z,47.10
2018-06-22T02:27:24.085Z,46.90
2018-06-22T02:29:51.355Z,46.90
2018-06-22T02:32:18.710Z,47.20
2018-06-22T02:34:46.022Z,47.00
2018-06-22T02:37:13.311Z,48.00
2018-06-22T02:39:40.598Z,47.30
2018-06-22T02:42:07.941Z,47.10
2018-06-22T02:47:02.482Z,46.90
2018-06-22T02:49:29.791Z,47.10
2018-06-22T02:51:57.126Z,47.20
2018-06-22T02:54:24.402Z,47.20
2018-06-22T02:56:51.698Z,48.30
2018-06-22T02:59:19.018Z,48.20
2018-06-22T03:01:46.283Z,48.20
2018-06-22T03:04:13.571Z,47.80
2018-06-22T03:06:40.871Z,48.40
2018-06-22T03:09:08.584Z,48.40
2018-06-22T03:11:35.914Z,48.40
2018-06-22T03:14:03.273Z,47.70
2018-06-22T03:16:30.616Z,48.40
2018-06-22T03:18:57.915Z,48.30
2018-06-22T03:21:25.193Z,47.60
2018-06-22T03:23:52.550Z,47.70
2018-06-22T03:26:19.816Z,47.80
2018-06-22T03:28:47.089Z,48.00
2018-06-22T03:31:14.386Z,47.80
2018-06-22T03:33:41.677Z,47.60
2018-06-22T03:36:09.018Z,47.50
2018-06-22T03:38:36.236Z,47.30
2018-06-22T03:41:03.570Z,47.80
2018-06-22T03:43:30.906Z,48.00
2018-06-22T03:45:58.182Z,47.40
2018-06-22T03:48:25.438Z,47.70
2018-06-22T03:50:52.707Z,47.70
2018-06-22T03:53:20.036Z,47.80
2018-06-22T03:55:47.315Z,48.00
2018-06-22T03:58:14.661Z,47.40
2018-06-22T04:00:41.987Z,48.10
2018-06-22T04:03:09.333Z,48.00
2018-06-22T04:05:36.619Z,47.90
2018-06-22T04:08:04.197Z,47.70
2018-06-22T04:10:31.494Z,48.40
2018-06-22T04:12:58.821Z,47.90
2018-06-22T04:15:26.082Z,48.40
2018-06-22T04:17:54.488Z,48.60
2018-06-22T04:20:22.857Z,47.90
2018-06-22T04:22:50.760Z,48.00
2018-06-22T04:25:19.330Z,48.70
2018-06-22T04:27:46.818Z,48.70
2018-06-22T04:30:14.370Z,48.40
2018-06-22T04:32:41.638Z,48.80
2018-06-22T04:35:09.053Z,49.20
2018-06-22T04:37:36.871Z,48.70
2018-06-22T04:40:04.388Z,48.80
2018-06-22T04:42:31.774Z,49.40
2018-06-22T04:45:01.195Z,49.00
2018-06-22T04:47:28.585Z,49.70
2018-06-22T04:49:55.962Z,49.00
2018-06-22T04:52:23.231Z,48.40
2018-06-22T04:54:50.529Z,48.10
2018-06-22T04:57:17.856Z,48.80
2018-06-22T04:59:45.191Z,49.30
2018-06-22T05:02:12.490Z,49.40
2018-06-22T05:04:39.754Z,48.70
2018-06-22T05:07:07.058Z,49.00
2018-06-22T05:09:34.402Z,49.60
2018-06-22T05:12:01.673Z,48.80
2018-06-22T05:14:29.078Z,48.80
2018-06-22T05:16:56.406Z,49.70
2018-06-22T05:19:23.793Z,49.60
2018-06-22T05:21:51.033Z,49.60
2018-06-22T05:24:18.402Z,50.00
2018-06-22T05:26:45.785Z,49.20
2018-06-22T05:29:13.030Z,49.60
2018-06-22T05:31:40.326Z,50.10
2018-06-22T05:34:07.624Z,49.80
2018-06-22T05:36:34.991Z,49.20
2018-06-22T05:39:03.358Z,51.10
2018-06-22T05:41:30.746Z,50.40
2018-06-22T05:43:58.022Z,49.70
2018-06-22T05:46:25.251Z,49.60
2018-06-22T05:48:52.535Z,50.80
2018-06-22T05:53:47.133Z,49.90
2018-06-22T05:56:14.501Z,49.50
2018-06-22T05:58:41.750Z,50.10
2018-06-22T06:01:09.062Z,50.70
2018-06-22T06:03:36.587Z,49.10
2018-06-22T06:06:04.018Z,49.30
2018-06-22T06:08:31.404Z,50.00
2018-06-22T06:10:58.726Z,50.20
2018-06-22T06:13:25.926Z,49.40
2018-06-22T06:15:53.198Z,50.00
2018-06-22T06:18:20.519Z,49.80
2018-06-22T06:20:47.765Z,49.60
2018-06-22T06:23:15.018Z,49.50
2018-06-22T06:25:42.322Z,49.00
2018-06-22T06:28:09.711Z,48.90
2018-06-22T06:30:37.073Z,49.10
2018-06-22T06:33:04.778Z,48.60
2018-06-22T06:35:32.035Z,48.60
2018-06-22T06:37:59.396Z,48.90
2018-06-22T06:40:26.714Z,49.10
2018-06-22T06:42:53.994Z,49.00
2018-06-22T06:45:21.235Z,48.00
2018-06-22T06:47:48.558Z,48.10
2018-06-22T06:50:16.046Z,48.00
2018-06-22T06:52:43.334Z,47.70
2018-06-22T06:55:10.700Z,47.70
2018-06-22T06:57:38.071Z,47.60
2018-06-22T07:00:05.734Z,47.30
2018-06-22T07:02:33.059Z,48.00
2018-06-22T07:05:00.446Z,48.60
2018-06-22T07:07:27.766Z,47.90
2018-06-22T07:09:55.045Z,48.40
2018-06-22T07:12:22.301Z,47.70
2018-06-22T07:14:49.602Z,48.40
2018-06-22T07:17:16.962Z,48.00
2018-06-22T07:19:44.242Z,47.80
2018-06-22T07:22:11.644Z,48.20
2018-06-22T07:24:38.926Z,47.80
2018-06-22T07:27:06.266Z,47.90
2018-06-22T07:29:33.577Z,48.30
2018-06-22T07:32:00.864Z,48.40
2018-06-22T07:34:28.095Z,49.00
2018-06-22T07:36:55.379Z,49.10
2018-06-22T07:39:22.781Z,49.20
2018-06-22T07:41:50.090Z,48.50
2018-06-22T07:44:17.412Z,49.10
2018-06-22T07:46:44.771Z,48.40
2018-06-22T07:49:12.066Z,49.70
2018-06-22T07:51:39.289Z,49.50
2018-06-22T07:54:06.628Z,49.90
2018-06-22T07:56:34.042Z,49.30
2018-06-22T07:59:01.358Z,49.20
2018-06-22T08:01:28.670Z,49.20
2018-06-22T08:03:56.018Z,49.00
2018-06-22T08:06:23.544Z,48.80
2018-06-22T08:08:50.866Z,48.90
2018-06-22T08:11:18.253Z,49.00
2018-06-22T08:13:45.533Z,49.00
2018-06-22T08:16:12.858Z,49.00
2018-06-22T08:18:40.164Z,49.00
2018-06-22T08:21:07.385Z,48.80
2018-06-22T08:23:34.746Z,48.60
2018-06-22T08:26:02.055Z,48.90
2018-06-22T08:28:29.354Z,49.00
2018-06-22T08:30:56.667Z,48.70
2018-06-22T08:33:26.151Z,49.10
2018-06-22T08:35:53.420Z,48.80
2018-06-22T08:38:20.794Z,49.00
2018-06-22T08:40:48.116Z,49.80
2018-06-22T08:43:15.374Z,49.60
2018-06-22T08:45:42.647Z,48.90
2018-06-22T08:48:09.915Z,48.90
2018-06-22T08:50:37.177Z,49.10
2018-06-22T08:53:04.489Z,49.50
2018-06-22T08:55:31.754Z,48.30
2018-06-22T08:57:59.026Z,48.90
2018-06-22T09:00:26.286Z,48.80
2018-06-22T09:02:53.607Z,48.30
2018-06-22T09:05:20.965Z,48.90
2018-06-22T09:07:48.252Z,48.40
2018-06-22T09:10:15.531Z,49.40
2018-06-22T09:12:42.871Z,49.40
2018-06-22T09:15:10.912Z,48.30
2018-06-22T09:17:38.390Z,48.20
2018-06-22T09:20:06.050Z,48.70
2018-06-22T09:22:33.683Z,48.40
2018-06-22T09:25:02.373Z,48.00
2018-06-22T09:29:58.964Z,48.00
2018-06-22T09:32:28.536Z,47.20
2018-06-22T09:34:55.864Z,48.10
2018-06-22T09:37:24.173Z,49.30
2018-06-22T09:39:52.339Z,48.50
2018-06-22T09:42:21.411Z,48.60
2018-06-22T09:44:50.198Z,46.10
2018-06-22T09:47:17.663Z,46.70
2018-06-22T09:52:12.261Z,49.40
2018-06-22T09:54:39.603Z,48.50
2018-06-22T09:57:06.930Z,48.70
2018-06-22T09:59:34.582Z,48.00
2018-06-22T10:02:03.161Z,49.00
2018-06-22T10:04:31.557Z,47.40
2018-06-22T10:07:00.373Z,48.10
2018-06-22T10:09:28.110Z,47.50
2018-06-22T10:11:55.378Z,47.90
2018-06-22T10:14:24.726Z,48.60
2018-06-22T10:16:52.050Z,48.90
2018-06-22T10:19:19.473Z,47.50
2018-06-22T10:21:46.738Z,47.40
2018-06-22T10:24:14.861Z,48.80
2018-06-22T10:26:42.202Z,47.60
2018-06-22T10:29:09.630Z,47.70
2018-06-22T10:31:36.951Z,47.00
2018-06-22T10:34:04.529Z,46.60
2018-06-22T10:36:32.157Z,47.50
2018-06-22T10:39:01.533Z,47.10
2018-06-22T10:41:30.834Z,47.60
2018-06-22T10:43:58.359Z,47.60
2018-06-22T10:46:25.974Z,48.80
2018-06-22T10:48:53.460Z,48.00
2018-06-22T10:51:21.155Z,47.10
2018-06-22T10:53:50.561Z,47.50
2018-06-22T10:56:17.834Z,46.30
2018-06-22T10:58:46.129Z,46.30
2018-06-22T11:01:13.602Z,48.20
2018-06-22T11:03:41.777Z,49.20
2018-06-22T11:06:09.095Z,46.60
2018-06-22T11:08:36.463Z,46.00
2018-06-22T11:11:03.749Z,46.60
2018-06-22T11:13:31.368Z,46.70
2018-06-22T11:15:59.214Z,46.20
2018-06-22T11:18:26.766Z,47.40
2018-06-22T11:20:54.342Z,47.20
2018-06-22T11:23:21.613Z,46.90
2018-06-22T11:25:48.967Z,47.50
2018-06-22T11:28:16.190Z,46.80
2018-06-22T11:30:43.540Z,45.90
2018-06-22T11:33:10.826Z,46.20
2018-06-22T11:35:38.097Z,46.60
2018-06-22T11:38:05.419Z,46.40
2018-06-22T11:40:32.801Z,47.00
2018-06-22T11:43:00.127Z,47.80
2018-06-22T11:45:27.425Z,47.20
2018-06-22T11:47:54.682Z,47.50
2018-06-22T11:50:21.974Z,46.00
2018-06-22T11:52:49.246Z,45.90
2018-06-22T11:55:17.246Z,46.30
2018-06-22T11:57:44.497Z,46.80
2018-06-22T12:00:11.861Z,46.20
2018-06-22T12:02:39.128Z,46.20
2018-06-22T12:05:06.461Z,46.00
2018-06-22T12:07:33.721Z,46.10
2018-06-22T12:10:01.070Z,46.20
2018-06-22T12:12:28.358Z,45.80
2018-06-22T12:14:55.671Z,45.90
2018-06-22T12:17:22.921Z,46.10
2018-06-22T12:19:50.272Z,45.90
2018-06-22T12:22:17.650Z,46.10
2018-06-22T12:24:44.942Z,45.40
2018-06-22T12:27:12.370Z,45.30
2018-06-22T12:29:39.762Z,46.00
2018-06-22T12:32:07.079Z,45.80
2018-06-22T12:34:34.403Z,46.00
2018-06-22T12:37:01.922Z,46.50
2018-06-22T12:39:29.276Z,45.60
2018-06-22T12:41:56.567Z,45.80
2018-06-22T12:44:23.926Z,47.00
2018-06-22T12:46:51.859Z,46.10
2018-06-22T12:49:19.230Z,45.60
2018-06-22T12:51:46.513Z,45.90
2018-06-22T12:54:13.834Z,46.20
2018-06-22T12:56:41.137Z,46.70
2018-06-22T12:59:08.471Z,46.70
2018-06-22T13:01:35.862Z,45.90
2018-06-22T13:04:03.311Z,45.60
2018-06-22T13:06:30.622Z,45.40
2018-06-22T13:08:57.949Z,45.60
2018-06-22T13:11:25.280Z,45.50
2018-06-22T13:13:52.724Z,45.70
2018-06-22T13:16:20.040Z,46.30
2018-06-22T13:18:47.369Z,45.80
2018-06-22T13:21:14.686Z,45.50
2018-06-22T13:23:42.031Z,45.60
2018-06-22T13:26:09.345Z,46.20
2018-06-22T13:31:04.081Z,45.80
2018-06-22T13:33:31.406Z,45.50
2018-06-22T13:35:58.862Z,46.00
2018-06-22T13:38:26.192Z,45.70
2018-06-22T13:40:53.463Z,47.10
2018-06-22T13:43:21.598Z,47.20
2018-06-22T13:45:48.837Z,45.90
2018-06-22T13:48:16.088Z,45.60
2018-06-22T13:50:43.394Z,46.00
2018-06-22T13:53:10.746Z,46.60
2018-06-22T13:55:38.489Z,46.00
2018-06-22T13:58:05.894Z,45.60
2018-06-22T14:00:33.404Z,45.70
2018-06-22T14:03:00.806Z,45.70
2018-06-22T14:05:33.934Z,47.00
2018-06-22T14:08:01.302Z,46.40
2018-06-22T14:10:28.663Z,46.40
2018-06-22T14:12:55.945Z,45.80
2018-06-22T14:15:23.228Z,46.00
2018-06-22T14:17:50.486Z,45.80
2018-06-22T14:20:18.047Z,45.60
2018-06-22T14:22:45.286Z,45.90
2018-06-22T14:25:12.561Z,45.00
2018-06-22T14:27:39.886Z,45.80
2018-06-22T14:30:07.368Z,45.40
2018-06-22T14:32:34.720Z,45.50
2018-06-22T14:35:02.078Z,45.00
2018-06-22T14:37:29.483Z,43.80
2018-06-22T14:39:56.824Z,44.30
2018-06-22T14:42:24.108Z,44.60
2018-06-22T14:44:51.565Z,45.00
2018-06-22T14:47:18.921Z,45.60
2018-06-22T14:49:46.462Z,45.60
2018-06-22T14:52:14.626Z,44.80
2018-06-22T14:54:47.836Z,46.20
2018-06-22T14:58:20.976Z,46.10
2018-06-22T15:00:54.138Z,45.80
2018-06-22T15:03:27.238Z,46.00
2018-06-22T15:06:00.539Z,46.10
2018-06-22T15:08:28.023Z,44.90
2018-06-22T15:10:55.440Z,45.30
2018-06-22T15:13:24.448Z,45.40
2018-06-22T15:15:53.692Z,45.70
2018-06-22T15:18:22.782Z,45.50
2018-06-22T15:20:52.590Z,45.70
2018-06-22T15:23:21.168Z,45.50
2018-06-22T15:25:48.482Z,45.80
2018-06-22T15:28:15.834Z,45.20
2018-06-22T15:30:45.028Z,45.30
2018-06-22T15:33:18.001Z,45.00
2018-06-22T15:35:51.221Z,45.60
2018-06-22T15:38:24.557Z,45.80
2018-06-22T15:40:58.513Z,45.60
2018-06-22T15:43:31.580Z,44.40
2018-06-22T15:46:04.823Z,45.60
2018-06-22T15:48:45.346Z,45.20
2018-06-22T15:51:19.071Z,44.80
2018-06-22T15:53:52.372Z,45.20
2018-06-22T15:56:20.074Z,45.10
2018-06-22T15:58:47.377Z,43.80
2018-06-22T16:01:15.470Z,45.30
2018-06-22T16:03:48.523Z,45.60
2018-06-22T16:06:16.515Z,45.40
2018-06-22T16:08:43.835Z,45.40
2018-06-22T16:11:11.164Z,45.90
2018-06-22T16:13:38.603Z,45.70
2018-06-22T16:16:11.687Z,45.40
2018-06-22T16:18:44.602Z,46.00
2018-06-22T16:21:17.673Z,46.00
2018-06-22T16:23:51.142Z,45.60
2018-06-22T16:26:24.347Z,45.30
2018-06-22T16:28:53.495Z,45.40
2018-06-22T16:31:20.968Z,45.30
2018-06-22T16:33:55.758Z,45.40
2018-06-22T16:38:51.297Z,44.50
2018-06-22T16:41:18.765Z,44.80
2018-06-22T16:43:46.102Z,44.60
2018-06-22T16:46:13.403Z,44.30
2018-06-22T16:48:40.796Z,45.40
2018-06-22T16:51:08.290Z,44.90
2018-06-22T16:53:35.645Z,45.10
2018-06-22T16:56:03.108Z,45.20
2018-06-22T16:58:36.035Z,46.00
2018-06-22T17:01:03.390Z,46.40
2018-06-22T17:03:30.736Z,46.40
2018-06-22T17:05:58.079Z,46.30
2018-06-22T17:10:33.046Z,46.60
2018-06-22T17:13:05.950Z,45.90
2018-06-22T17:15:38.846Z,46.10
2018-06-22T17:18:11.893Z,46.70
2018-06-22T17:20:39.271Z,46.50
2018-06-22T17:23:06.537Z,46.60
2018-06-22T17:25:35.420Z,47.20
2018-06-22T17:28:04.827Z,47.10
2018-06-22T17:30:33.976Z,47.20
2018-06-22T17:33:03.139Z,47.30
2018-06-22T17:35:31.545Z,47.00
2018-06-22T17:37:59.025Z,46.90
2018-06-22T17:40:26.462Z,47.10
2018-06-22T17:42:53.775Z,47.10
2018-06-22T17:45:21.118Z,46.80
2018-06-22T17:47:48.443Z,46.90
2018-06-22T17:50:21.557Z,47.20
2018-06-22T17:52:48.825Z,47.20
2018-06-22T17:55:16.093Z,46.90
2018-06-22T17:57:43.526Z,47.20
2018-06-22T18:00:16.700Z,46.80
2018-06-22T18:02:49.694Z,47.10
2018-06-22T18:05:22.706Z,47.00
2018-06-22T18:07:50.107Z,46.70
2018-06-22T18:10:23.257Z,46.70
2018-06-22T18:12:53.263Z,47.50
2018-06-22T18:15:20.541Z,46.90
2018-06-22T18:17:47.918Z,47.20
2018-06-22T18:20:16.261Z,47.20
2018-06-22T18:22:43.693Z,47.50
2018-06-22T18:25:11.574Z,47.40
2018-06-22T18:27:39.031Z,47.60
2018-06-22T18:30:08.705Z,47.40
2018-06-22T18:32:36.135Z,47.80
2018-06-22T18:35:03.452Z,47.90
2018-06-22T18:37:30.843Z,48.10
2018-06-22T18:39:58.693Z,47.80
2018-06-22T18:42:26.050Z,47.50
2018-06-22T18:44:53.350Z,47.90
2018-06-22T18:47:20.673Z,48.00
2018-06-22T18:49:47.922Z,48.00
2018-06-22T18:52:21.135Z,48.00
2018-06-22T18:54:54.229Z,48.20
2018-06-22T18:57:27.254Z,48.20
2018-06-22T19:00:00.455Z,48.60
2018-06-22T19:02:33.312Z,48.60
2018-06-22T19:05:00.684Z,48.40
2018-06-22T19:07:28.193Z,48.40
2018-06-22T19:09:55.544Z,48.40
2018-06-22T19:12:23.590Z,48.60
2018-06-22T19:14:50.902Z,48.60
2018-06-22T19:17:18.321Z,48.40
2018-06-22T19:19:45.734Z,48.10
2018-06-22T19:22:13.263Z,48.40
2018-06-22T19:24:40.552Z,49.30
2018-06-22T19:27:07.877Z,48.60
2018-06-22T19:29:35.219Z,48.60
2018-06-22T19:32:02.593Z,48.50
2018-06-22T19:34:35.671Z,48.60
2018-06-22T19:37:03.022Z,48.40
2018-06-22T19:39:30.349Z,48.50
2018-06-22T19:41:57.700Z,48.90
2018-06-22T19:44:31.746Z,49.10
2018-06-22T19:47:04.902Z,48.90
2018-06-22T19:49:37.919Z,49.00
2018-06-22T19:52:11.047Z,49.10
2018-06-22T19:54:38.553Z,49.20
2018-06-22T19:57:05.826Z,49.20
2018-06-22T19:59:33.146Z,49.60
2018-06-22T20:02:00.684Z,49.60
2018-06-22T20:04:28.158Z,49.80
2018-06-22T20:06:55.490Z,49.80
2018-06-22T20:09:22.869Z,50.00
2018-06-22T20:11:50.250Z,50.00
2018-06-22T20:14:17.923Z,49.80
2018-06-22T20:16:45.226Z,49.80
2018-06-22T20:19:14.630Z,49.90
2018-06-22T20:21:42.760Z,49.80
2018-06-22T20:24:11.094Z,49.60
2018-06-22T20:26:38.446Z,49.80
2018-06-22T20:29:05.782Z,49.70
2018-06-22T20:31:38.780Z,50.00
2018-06-22T20:34:11.653Z,49.80
2018-06-22T20:36:44.591Z,50.40
2018-06-22T20:39:17.560Z,50.30
2018-06-22T20:41:50.370Z,50.60
2018-06-22T20:44:23.501Z,50.00
2018-06-22T20:46:56.350Z,50.10
2018-06-22T20:49:29.639Z,50.10
2018-06-22T20:51:57.337Z,50.30
2018-06-22T20:54:24.721Z,50.10
2018-06-22T20:56:52.366Z,50.80
2018-06-22T20:59:19.694Z,50.40
2018-06-22T21:01:46.985Z,50.50
2018-06-22T21:04:14.522Z,50.60
2018-06-22T21:06:41.862Z,50.50
2018-06-22T21:09:10.076Z,50.30
2018-06-22T21:11:37.339Z,51.00
2018-06-22T21:14:05.401Z,50.60
2018-06-22T21:16:32.727Z,50.80
2018-06-22T21:19:00.043Z,51.40
2018-06-22T21:21:32.919Z,51.00
2018-06-22T21:24:00.321Z,51.10
2018-06-22T21:26:27.610Z,50.90
2018-06-22T21:29:00.489Z,50.90
2018-06-22T21:31:33.506Z,51.10
2018-06-22T21:34:06.715Z,51.00
2018-06-22T21:36:39.806Z,51.00
2018-06-22T21:39:08.254Z,51.30
2018-06-22T21:41:35.610Z,51.30
2018-06-22T21:44:03.009Z,51.00
2018-06-22T21:46:30.309Z,50.90
2018-06-22T21:48:57.658Z,51.10
2018-06-22T21:51:24.989Z,51.00
2018-06-22T21:53:52.519Z,51.10
2018-06-22T21:56:19.851Z,51.00
2018-06-22T21:58:47.105Z,50.90
2018-06-22T22:01:14.390Z,51.10
2018-06-22T22:03:41.695Z,51.40
2018-06-22T22:06:09.954Z,51.20
2018-06-22T22:08:37.288Z,51.50
2018-06-22T22:11:08.545Z,51.30
2018-06-22T22:13:36.125Z,51.40
2018-06-22T22:16:03.694Z,51.20
2018-06-22T22:18:31.096Z,51.60
2018-06-22T22:20:58.362Z,51.40
2018-06-22T22:23:26.300Z,51.40
2018-06-22T22:25:53.658Z,51.30
2018-06-22T22:28:21.160Z,51.30
2018-06-22T22:30:48.780Z,51.40
2018-06-22T22:33:17.380Z,51.60
2018-06-22T22:35:44.918Z,51.70
2018-06-22T22:38:13.119Z,51.60
2018-06-22T22:40:42.446Z,51.60
2018-06-22T22:43:09.774Z,51.70
2018-06-22T22:45:37.082Z,51.40
2018-06-22T22:48:04.494Z,51.70
2018-06-22T22:50:31.733Z,51.80
2018-06-22T22:52:59.022Z,51.50
2018-06-22T22:55:26.297Z,52.20
2018-06-22T22:57:54.194Z,51.90
2018-06-22T23:00:21.438Z,51.80
2018-06-22T23:02:48.701Z,51.90
2018-06-22T23:05:16.066Z,51.70
2018-06-22T23:07:43.342Z,51.50
2018-06-22T23:10:11.241Z,51.90
2018-06-22T23:12:38.478Z,51.50
2018-06-22T23:15:06.060Z,51.70
2018-06-22T23:17:33.272Z,51.90
2018-06-22T23:20:00.666Z,52.00
2018-06-22T23:22:39.442Z,51.70
2018-06-22T23:25:06.839Z,51.50
2018-06-22T23:27:34.209Z,51.80
2018-06-22T23:30:01.468Z,51.80
2018-06-22T23:32:28.797Z,51.80
2018-06-22T23:34:56.090Z,51.90
2018-06-22T23:37:23.453Z,51.60
2018-06-22T23:39:50.709Z,51.80
2018-06-22T23:42:18.010Z,51.80
2018-06-22T23:44:45.389Z,51.40
2018-06-22T23:47:12.685Z,51.60
2018-06-22T23:49:39.942Z,51.50
2018-06-22T23:52:07.273Z,51.20
2018-06-22T23:54:34.534Z,51.30
2018-06-22T23:57:01.917Z,51.10
2018-06-22T23:59:29.225Z,51.60
